sensor_id;sensor_type;location;lat;lon;timestamp;P1;durP1;ratioP1;P2;durP2;ratioP2
21148;SDS011;10732;51.472;6.466;2022-08-24T00:01:01;6.13;;;5.10;;
21148;SDS011;10732;51.472;6.466;2022-08-24T00:03:31;9.98;;;5.50;;
21148;SDS011;10732;51.472;6.466;2022-08-24T00:05:57;6.85;;;5.22;;
21148;SDS011;10732;51.472;6.466;2022-08-24T00:08:23;9.23;;;4.90;;
21148;SDS011;10732;51.472;6.466;2022-08-24T00:10:50;7.88;;;4.95;;
21148;SDS011;10732;51.472;6.466;2022-08-24T00:13:16;9.38;;;5.22;;
21148;SDS011;10732;51.472;6.466;2022-08-24T00:15:42;8.95;;;4.93;;
21148;SDS011;10732;51.472;6.466;2022-08-24T00:18:09;8.27;;;5.07;;
21148;SDS011;10732;51.472;6.466;2022-08-24T00:20:35;7.38;;;4.65;;
21148;SDS011;10732;51.472;6.466;2022-08-24T00:23:01;9.10;;;4.40;;
21148;SDS011;10732;51.472;6.466;2022-08-24T00:25:27;9.73;;;5.38;;
21148;SDS011;10732;51.472;6.466;2022-08-24T00:27:53;7.32;;;5.15;;
21148;SDS011;10732;51.472;6.466;2022-08-24T00:30:19;5.93;;;5.05;;
21148;SDS011;10732;51.472;6.466;2022-08-24T00:32:45;8.27;;;5.68;;
21148;SDS011;10732;51.472;6.466;2022-08-24T00:35:12;13.95;;;5.68;;
21148;SDS011;10732;51.472;6.466;2022-08-24T00:37:39;9.00;;;5.88;;
21148;SDS011;10732;51.472;6.466;2022-08-24T00:40:09;7.78;;;5.65;;
21148;SDS011;10732;51.472;6.466;2022-08-24T00:42:38;9.57;;;5.90;;
21148;SDS011;10732;51.472;6.466;2022-08-24T00:45:06;8.48;;;5.40;;
21148;SDS011;10732;51.472;6.466;2022-08-24T00:47:35;6.75;;;5.75;;
21148;SDS011;10732;51.472;6.466;2022-08-24T00:50:13;7.00;;;5.50;;
21148;SDS011;10732;51.472;6.466;2022-08-24T00:52:58;7.25;;;5.90;;
21148;SDS011;10732;51.472;6.466;2022-08-24T00:55:34;7.75;;;5.57;;
21148;SDS011;10732;51.472;6.466;2022-08-24T00:58:04;8.30;;;6.47;;
21148;SDS011;10732;51.472;6.466;2022-08-24T01:00:39;9.35;;;5.90;;
21148;SDS011;10732;51.472;6.466;2022-08-24T01:03:07;9.73;;;6.20;;
21148;SDS011;10732;51.472;6.466;2022-08-24T01:05:34;10.32;;;6.10;;
21148;SDS011;10732;51.472;6.466;2022-08-24T01:08:02;9.32;;;5.85;;
21148;SDS011;10732;51.472;6.466;2022-08-24T01:10:31;10.57;;;6.38;;
21148;SDS011;10732;51.472;6.466;2022-08-24T01:13:01;9.70;;;6.60;;
21148;SDS011;10732;51.472;6.466;2022-08-24T01:15:30;8.95;;;6.88;;
21148;SDS011;10732;51.472;6.466;2022-08-24T01:17:59;8.35;;;6.80;;
21148;SDS011;10732;51.472;6.466;2022-08-24T01:20:44;13.30;;;6.75;;
21148;SDS011;10732;51.472;6.466;2022-08-24T01:23:24;12.40;;;7.85;;
21148;SDS011;10732;51.472;6.466;2022-08-24T01:26:13;9.63;;;6.63;;
21148;SDS011;10732;51.472;6.466;2022-08-24T01:28:46;10.15;;;6.65;;
21148;SDS011;10732;51.472;6.466;2022-08-24T01:31:18;10.35;;;6.70;;
21148;SDS011;10732;51.472;6.466;2022-08-24T01:33:46;9.05;;;6.80;;
21148;SDS011;10732;51.472;6.466;2022-08-24T01:36:16;11.88;;;7.40;;
21148;SDS011;10732;51.472;6.466;2022-08-24T01:38:54;12.13;;;7.65;;
21148;SDS011;10732;51.472;6.466;2022-08-24T01:41:25;11.27;;;8.68;;
21148;SDS011;10732;51.472;6.466;2022-08-24T01:43:51;9.80;;;8.48;;
21148;SDS011;10732;51.472;6.466;2022-08-24T01:46:17;13.80;;;9.02;;
21148;SDS011;10732;51.472;6.466;2022-08-24T01:48:42;15.70;;;9.30;;
21148;SDS011;10732;51.472;6.466;2022-08-24T01:51:08;10.68;;;9.43;;
21148;SDS011;10732;51.472;6.466;2022-08-24T01:53:34;13.52;;;9.02;;
21148;SDS011;10732;51.472;6.466;2022-08-24T01:56:00;15.25;;;9.52;;
21148;SDS011;10732;51.472;6.466;2022-08-24T01:58:27;14.85;;;9.88;;
21148;SDS011;10732;51.472;6.466;2022-08-24T02:00:52;18.30;;;9.98;;
21148;SDS011;10732;51.472;6.466;2022-08-24T02:03:18;16.33;;;9.88;;
21148;SDS011;10732;51.472;6.466;2022-08-24T02:05:44;11.85;;;10.25;;
21148;SDS011;10732;51.472;6.466;2022-08-24T02:08:10;14.93;;;10.45;;
21148;SDS011;10732;51.472;6.466;2022-08-24T02:10:35;12.52;;;10.63;;
21148;SDS011;10732;51.472;6.466;2022-08-24T02:13:01;16.77;;;11.20;;
21148;SDS011;10732;51.472;6.466;2022-08-24T02:15:36;14.93;;;10.95;;
21148;SDS011;10732;51.472;6.466;2022-08-24T02:18:07;13.77;;;10.75;;
21148;SDS011;10732;51.472;6.466;2022-08-24T02:20:34;13.20;;;10.82;;
21148;SDS011;10732;51.472;6.466;2022-08-24T02:23:00;17.08;;;10.90;;
21148;SDS011;10732;51.472;6.466;2022-08-24T02:25:27;14.52;;;11.30;;
21148;SDS011;10732;51.472;6.466;2022-08-24T02:27:55;15.32;;;11.45;;
21148;SDS011;10732;51.472;6.466;2022-08-24T02:30:22;15.00;;;11.88;;
21148;SDS011;10732;51.472;6.466;2022-08-24T02:32:48;13.68;;;11.57;;
21148;SDS011;10732;51.472;6.466;2022-08-24T02:35:13;15.32;;;11.30;;
21148;SDS011;10732;51.472;6.466;2022-08-24T02:37:39;13.02;;;11.13;;
21148;SDS011;10732;51.472;6.466;2022-08-24T02:40:05;13.23;;;10.57;;
21148;SDS011;10732;51.472;6.466;2022-08-24T02:42:31;16.30;;;11.32;;
21148;SDS011;10732;51.472;6.466;2022-08-24T02:44:58;13.05;;;10.00;;
21148;SDS011;10732;51.472;6.466;2022-08-24T02:47:25;14.02;;;9.00;;
21148;SDS011;10732;51.472;6.466;2022-08-24T02:49:51;12.85;;;8.60;;
21148;SDS011;10732;51.472;6.466;2022-08-24T02:52:16;11.77;;;9.45;;
21148;SDS011;10732;51.472;6.466;2022-08-24T02:54:42;13.52;;;9.60;;
21148;SDS011;10732;51.472;6.466;2022-08-24T02:57:07;14.98;;;11.00;;
21148;SDS011;10732;51.472;6.466;2022-08-24T02:59:33;13.93;;;10.98;;
21148;SDS011;10732;51.472;6.466;2022-08-24T03:01:59;17.05;;;12.20;;
21148;SDS011;10732;51.472;6.466;2022-08-24T03:04:24;16.98;;;11.30;;
21148;SDS011;10732;51.472;6.466;2022-08-24T03:06:50;13.57;;;10.55;;
21148;SDS011;10732;51.472;6.466;2022-08-24T03:09:16;14.25;;;11.73;;
21148;SDS011;10732;51.472;6.466;2022-08-24T03:11:41;16.05;;;11.90;;
21148;SDS011;10732;51.472;6.466;2022-08-24T03:14:07;14.23;;;11.60;;
21148;SDS011;10732;51.472;6.466;2022-08-24T03:16:33;13.18;;;10.88;;
21148;SDS011;10732;51.472;6.466;2022-08-24T03:18:59;13.52;;;11.80;;
21148;SDS011;10732;51.472;6.466;2022-08-24T03:21:25;16.88;;;11.80;;
21148;SDS011;10732;51.472;6.466;2022-08-24T03:23:52;12.95;;;10.27;;
21148;SDS011;10732;51.472;6.466;2022-08-24T03:26:18;13.55;;;10.15;;
21148;SDS011;10732;51.472;6.466;2022-08-24T03:28:44;11.85;;;9.60;;
21148;SDS011;10732;51.472;6.466;2022-08-24T03:31:10;13.25;;;9.90;;
21148;SDS011;10732;51.472;6.466;2022-08-24T03:33:36;14.73;;;9.75;;
21148;SDS011;10732;51.472;6.466;2022-08-24T03:36:02;16.85;;;10.30;;
21148;SDS011;10732;51.472;6.466;2022-08-24T03:38:27;15.15;;;10.50;;
21148;SDS011;10732;51.472;6.466;2022-08-24T03:40:54;12.70;;;10.18;;
21148;SDS011;10732;51.472;6.466;2022-08-24T03:43:19;13.05;;;11.45;;
21148;SDS011;10732;51.472;6.466;2022-08-24T03:46:04;16.27;;;11.30;;
21148;SDS011;10732;51.472;6.466;2022-08-24T03:48:31;13.27;;;11.23;;
21148;SDS011;10732;51.472;6.466;2022-08-24T03:50:57;13.32;;;11.52;;
21148;SDS011;10732;51.472;6.466;2022-08-24T03:53:22;15.63;;;11.45;;
21148;SDS011;10732;51.472;6.466;2022-08-24T03:55:48;15.85;;;11.07;;
21148;SDS011;10732;51.472;6.466;2022-08-24T03:58:14;12.88;;;11.23;;
21148;SDS011;10732;51.472;6.466;2022-08-24T04:00:40;14.48;;;11.82;;
21148;SDS011;10732;51.472;6.466;2022-08-24T04:03:07;13.23;;;11.35;;
21148;SDS011;10732;51.472;6.466;2022-08-24T04:05:34;14.15;;;12.52;;
21148;SDS011;10732;51.472;6.466;2022-08-24T04:08:00;14.80;;;12.02;;
21148;SDS011;10732;51.472;6.466;2022-08-24T04:10:26;13.35;;;11.98;;
21148;SDS011;10732;51.472;6.466;2022-08-24T04:12:52;20.55;;;13.93;;
21148;SDS011;10732;51.472;6.466;2022-08-24T04:15:18;15.80;;;14.15;;
21148;SDS011;10732;51.472;6.466;2022-08-24T04:17:44;16.75;;;14.38;;
21148;SDS011;10732;51.472;6.466;2022-08-24T04:20:10;22.77;;;14.63;;
21148;SDS011;10732;51.472;6.466;2022-08-24T04:22:35;16.20;;;14.65;;
21148;SDS011;10732;51.472;6.466;2022-08-24T04:25:02;16.08;;;14.38;;
21148;SDS011;10732;51.472;6.466;2022-08-24T04:27:29;17.70;;;14.10;;
21148;SDS011;10732;51.472;6.466;2022-08-24T04:29:54;20.92;;;15.70;;
21148;SDS011;10732;51.472;6.466;2022-08-24T04:32:20;17.88;;;15.98;;
21148;SDS011;10732;51.472;6.466;2022-08-24T04:34:45;23.17;;;16.65;;
21148;SDS011;10732;51.472;6.466;2022-08-24T04:37:11;17.80;;;14.88;;
21148;SDS011;10732;51.472;6.466;2022-08-24T04:39:38;21.38;;;15.68;;
21148;SDS011;10732;51.472;6.466;2022-08-24T04:42:04;22.40;;;16.60;;
21148;SDS011;10732;51.472;6.466;2022-08-24T04:44:30;17.55;;;15.70;;
21148;SDS011;10732;51.472;6.466;2022-08-24T04:46:56;23.38;;;18.25;;
21148;SDS011;10732;51.472;6.466;2022-08-24T04:49:22;23.15;;;19.38;;
21148;SDS011;10732;51.472;6.466;2022-08-24T04:51:47;25.17;;;19.70;;
21148;SDS011;10732;51.472;6.466;2022-08-24T04:54:13;25.92;;;18.67;;
21148;SDS011;10732;51.472;6.466;2022-08-24T04:56:39;19.25;;;16.95;;
21148;SDS011;10732;51.472;6.466;2022-08-24T04:59:04;19.52;;;15.43;;
21148;SDS011;10732;51.472;6.466;2022-08-24T05:01:30;17.45;;;13.90;;
21148;SDS011;10732;51.472;6.466;2022-08-24T05:03:59;15.70;;;12.68;;
21148;SDS011;10732;51.472;6.466;2022-08-24T05:06:26;17.42;;;12.80;;
21148;SDS011;10732;51.472;6.466;2022-08-24T05:08:53;23.30;;;12.20;;
21148;SDS011;10732;51.472;6.466;2022-08-24T05:11:19;16.95;;;10.60;;
21148;SDS011;10732;51.472;6.466;2022-08-24T05:13:46;17.83;;;10.80;;
21148;SDS011;10732;51.472;6.466;2022-08-24T05:16:12;15.52;;;10.57;;
21148;SDS011;10732;51.472;6.466;2022-08-24T05:18:40;15.07;;;9.82;;
21148;SDS011;10732;51.472;6.466;2022-08-24T05:21:09;11.73;;;9.85;;
21148;SDS011;10732;51.472;6.466;2022-08-24T05:23:37;15.93;;;10.32;;
21148;SDS011;10732;51.472;6.466;2022-08-24T05:26:08;11.73;;;10.13;;
21148;SDS011;10732;51.472;6.466;2022-08-24T05:28:36;13.32;;;10.02;;
21148;SDS011;10732;51.472;6.466;2022-08-24T05:31:10;13.00;;;9.70;;
21148;SDS011;10732;51.472;6.466;2022-08-24T05:33:37;11.00;;;8.75;;
21148;SDS011;10732;51.472;6.466;2022-08-24T05:36:04;15.55;;;9.05;;
21148;SDS011;10732;51.472;6.466;2022-08-24T05:38:38;15.73;;;8.20;;
21148;SDS011;10732;51.472;6.466;2022-08-24T05:41:03;13.73;;;8.77;;
21148;SDS011;10732;51.472;6.466;2022-08-24T05:43:29;15.20;;;9.20;;
21148;SDS011;10732;51.472;6.466;2022-08-24T05:45:55;13.52;;;8.93;;
21148;SDS011;10732;51.472;6.466;2022-08-24T05:48:21;15.13;;;8.10;;
21148;SDS011;10732;51.472;6.466;2022-08-24T05:50:53;12.98;;;8.45;;
21148;SDS011;10732;51.472;6.466;2022-08-24T05:53:21;12.57;;;7.88;;
21148;SDS011;10732;51.472;6.466;2022-08-24T05:55:47;14.57;;;7.93;;
21148;SDS011;10732;51.472;6.466;2022-08-24T05:58:13;13.57;;;7.78;;
21148;SDS011;10732;51.472;6.466;2022-08-24T06:00:39;12.70;;;7.65;;
21148;SDS011;10732;51.472;6.466;2022-08-24T06:03:09;13.82;;;8.18;;
21148;SDS011;10732;51.472;6.466;2022-08-24T06:05:39;11.68;;;8.57;;
21148;SDS011;10732;51.472;6.466;2022-08-24T06:08:06;12.35;;;8.50;;
21148;SDS011;10732;51.472;6.466;2022-08-24T06:10:38;12.82;;;9.98;;
21148;SDS011;10732;51.472;6.466;2022-08-24T06:13:08;16.00;;;9.63;;
21148;SDS011;10732;51.472;6.466;2022-08-24T06:15:35;15.15;;;8.90;;
21148;SDS011;10732;51.472;6.466;2022-08-24T06:18:02;14.40;;;9.23;;
21148;SDS011;10732;51.472;6.466;2022-08-24T06:20:29;13.40;;;10.05;;
21148;SDS011;10732;51.472;6.466;2022-08-24T06:22:55;18.63;;;10.15;;
21148;SDS011;10732;51.472;6.466;2022-08-24T06:25:21;13.73;;;11.02;;
21148;SDS011;10732;51.472;6.466;2022-08-24T06:28:05;19.13;;;11.60;;
21148;SDS011;10732;51.472;6.466;2022-08-24T06:30:30;15.05;;;11.02;;
21148;SDS011;10732;51.472;6.466;2022-08-24T06:33:00;19.15;;;11.75;;
21148;SDS011;10732;51.472;6.466;2022-08-24T06:35:28;15.20;;;10.60;;
21148;SDS011;10732;51.472;6.466;2022-08-24T06:37:53;16.55;;;10.00;;
21148;SDS011;10732;51.472;6.466;2022-08-24T06:40:19;16.23;;;10.13;;
21148;SDS011;10732;51.472;6.466;2022-08-24T06:42:45;15.35;;;9.45;;
21148;SDS011;10732;51.472;6.466;2022-08-24T06:45:11;16.13;;;10.40;;
21148;SDS011;10732;51.472;6.466;2022-08-24T06:47:37;13.27;;;10.00;;
21148;SDS011;10732;51.472;6.466;2022-08-24T06:50:02;13.07;;;9.80;;
21148;SDS011;10732;51.472;6.466;2022-08-24T06:52:29;19.30;;;10.15;;
21148;SDS011;10732;51.472;6.466;2022-08-24T06:54:55;15.30;;;9.52;;
21148;SDS011;10732;51.472;6.466;2022-08-24T06:57:21;17.33;;;10.23;;
21148;SDS011;10732;51.472;6.466;2022-08-24T06:59:46;19.55;;;9.38;;
21148;SDS011;10732;51.472;6.466;2022-08-24T07:02:12;14.73;;;9.63;;
21148;SDS011;10732;51.472;6.466;2022-08-24T07:04:40;17.20;;;9.27;;
21148;SDS011;10732;51.472;6.466;2022-08-24T07:07:06;12.90;;;9.10;;
21148;SDS011;10732;51.472;6.466;2022-08-24T07:09:32;15.30;;;8.55;;
21148;SDS011;10732;51.472;6.466;2022-08-24T07:11:58;17.92;;;8.68;;
21148;SDS011;10732;51.472;6.466;2022-08-24T07:14:23;12.68;;;8.40;;
21148;SDS011;10732;51.472;6.466;2022-08-24T07:16:49;13.77;;;9.18;;
21148;SDS011;10732;51.472;6.466;2022-08-24T07:19:15;15.13;;;7.45;;
21148;SDS011;10732;51.472;6.466;2022-08-24T07:21:40;14.77;;;7.90;;
21148;SDS011;10732;51.472;6.466;2022-08-24T07:24:06;16.85;;;7.13;;
21148;SDS011;10732;51.472;6.466;2022-08-24T07:26:32;10.75;;;6.63;;
21148;SDS011;10732;51.472;6.466;2022-08-24T07:28:59;12.95;;;6.32;;
21148;SDS011;10732;51.472;6.466;2022-08-24T07:31:33;10.50;;;6.28;;
21148;SDS011;10732;51.472;6.466;2022-08-24T07:34:01;11.88;;;6.82;;
21148;SDS011;10732;51.472;6.466;2022-08-24T07:36:28;12.15;;;6.68;;
21148;SDS011;10732;51.472;6.466;2022-08-24T07:38:54;10.30;;;6.15;;
21148;SDS011;10732;51.472;6.466;2022-08-24T07:41:20;13.95;;;6.65;;
21148;SDS011;10732;51.472;6.466;2022-08-24T07:43:47;10.63;;;6.45;;
21148;SDS011;10732;51.472;6.466;2022-08-24T07:46:13;8.73;;;6.05;;
21148;SDS011;10732;51.472;6.466;2022-08-24T07:48:39;11.35;;;6.03;;
21148;SDS011;10732;51.472;6.466;2022-08-24T07:51:05;9.07;;;5.45;;
21148;SDS011;10732;51.472;6.466;2022-08-24T07:53:32;13.30;;;5.88;;
21148;SDS011;10732;51.472;6.466;2022-08-24T07:55:57;9.15;;;5.30;;
21148;SDS011;10732;51.472;6.466;2022-08-24T07:58:23;11.95;;;5.30;;
21148;SDS011;10732;51.472;6.466;2022-08-24T08:00:48;11.95;;;5.65;;
21148;SDS011;10732;51.472;6.466;2022-08-24T08:03:14;9.13;;;4.90;;
21148;SDS011;10732;51.472;6.466;2022-08-24T08:05:39;9.77;;;4.78;;
21148;SDS011;10732;51.472;6.466;2022-08-24T08:08:05;10.10;;;4.78;;
21148;SDS011;10732;51.472;6.466;2022-08-24T08:10:31;12.93;;;4.32;;
21148;SDS011;10732;51.472;6.466;2022-08-24T08:13:00;8.45;;;4.18;;
21148;SDS011;10732;51.472;6.466;2022-08-24T08:15:26;8.55;;;3.80;;
21148;SDS011;10732;51.472;6.466;2022-08-24T08:17:52;9.60;;;3.60;;
21148;SDS011;10732;51.472;6.466;2022-08-24T08:20:17;6.20;;;3.70;;
21148;SDS011;10732;51.472;6.466;2022-08-24T08:22:43;11.85;;;4.50;;
21148;SDS011;10732;51.472;6.466;2022-08-24T08:25:27;7.28;;;3.85;;
21148;SDS011;10732;51.472;6.466;2022-08-24T08:27:53;9.52;;;4.00;;
21148;SDS011;10732;51.472;6.466;2022-08-24T08:30:19;10.55;;;3.80;;
21148;SDS011;10732;51.472;6.466;2022-08-24T08:32:44;8.25;;;4.00;;
21148;SDS011;10732;51.472;6.466;2022-08-24T08:35:10;12.27;;;4.28;;
21148;SDS011;10732;51.472;6.466;2022-08-24T08:37:36;7.38;;;3.50;;
21148;SDS011;10732;51.472;6.466;2022-08-24T08:40:03;9.23;;;3.88;;
21148;SDS011;10732;51.472;6.466;2022-08-24T08:45:29;8.93;;;3.58;;
21148;SDS011;10732;51.472;6.466;2022-08-24T08:56:43;8.20;;;3.03;;
21148;SDS011;10732;51.472;6.466;2022-08-24T09:01:59;9.32;;;3.20;;
21148;SDS011;10732;51.472;6.466;2022-08-24T09:04:53;6.07;;;3.05;;
21148;SDS011;10732;51.472;6.466;2022-08-24T09:20:53;10.73;;;3.50;;
21148;SDS011;10732;51.472;6.466;2022-08-24T09:24:08;8.55;;;3.03;;
21148;SDS011;10732;51.472;6.466;2022-08-24T09:29:07;6.28;;;3.20;;
21148;SDS011;10732;51.472;6.466;2022-08-24T09:34:46;10.88;;;3.15;;
21148;SDS011;10732;51.472;6.466;2022-08-24T09:39:55;8.15;;;3.30;;
21148;SDS011;10732;51.472;6.466;2022-08-24T09:51:24;11.25;;;3.08;;
21148;SDS011;10732;51.472;6.466;2022-08-24T10:00:07;8.10;;;2.45;;
21148;SDS011;10732;51.472;6.466;2022-08-24T10:05:58;5.68;;;2.67;;
21148;SDS011;10732;51.472;6.466;2022-08-24T10:11:25;7.53;;;2.78;;
21148;SDS011;10732;51.472;6.466;2022-08-24T10:16:39;10.38;;;2.75;;
21148;SDS011;10732;51.472;6.466;2022-08-24T10:19:29;8.82;;;3.08;;
21148;SDS011;10732;51.472;6.466;2022-08-24T10:22:07;7.68;;;2.60;;
21148;SDS011;10732;51.472;6.466;2022-08-24T10:24:48;7.90;;;2.80;;
21148;SDS011;10732;51.472;6.466;2022-08-24T10:48:09;8.13;;;2.95;;
21148;SDS011;10732;51.472;6.466;2022-08-24T10:53:53;14.10;;;2.70;;
21148;SDS011;10732;51.472;6.466;2022-08-24T11:02:11;6.80;;;2.45;;
21148;SDS011;10732;51.472;6.466;2022-08-24T11:04:56;6.45;;;2.00;;
21148;SDS011;10732;51.472;6.466;2022-08-24T11:07:26;6.47;;;2.03;;
21148;SDS011;10732;51.472;6.466;2022-08-24T11:12:26;9.60;;;2.25;;
21148;SDS011;10732;51.472;6.466;2022-08-24T11:14:56;7.03;;;2.15;;
21148;SDS011;10732;51.472;6.466;2022-08-24T11:17:25;7.93;;;2.60;;
21148;SDS011;10732;51.472;6.466;2022-08-24T11:19:53;6.82;;;2.42;;
21148;SDS011;10732;51.472;6.466;2022-08-24T11:25:27;7.28;;;2.47;;
21148;SDS011;10732;51.472;6.466;2022-08-24T11:27:56;7.18;;;2.53;;
21148;SDS011;10732;51.472;6.466;2022-08-24T11:30:28;8.05;;;2.15;;
21148;SDS011;10732;51.472;6.466;2022-08-24T11:33:01;4.78;;;2.03;;
21148;SDS011;10732;51.472;6.466;2022-08-24T11:41:21;7.50;;;2.20;;
21148;SDS011;10732;51.472;6.466;2022-08-24T11:46:38;5.40;;;1.92;;
21148;SDS011;10732;51.472;6.466;2022-08-24T11:49:17;6.07;;;1.98;;
21148;SDS011;10732;51.472;6.466;2022-08-24T11:54:41;6.80;;;2.13;;
21148;SDS011;10732;51.472;6.466;2022-08-24T11:57:35;6.05;;;2.45;;
21148;SDS011;10732;51.472;6.466;2022-08-24T12:00:13;3.92;;;1.80;;
21148;SDS011;10732;51.472;6.466;2022-08-24T12:02:47;4.45;;;2.00;;
21148;SDS011;10732;51.472;6.466;2022-08-24T12:08:18;5.20;;;2.20;;
21148;SDS011;10732;51.472;6.466;2022-08-24T12:16:27;3.03;;;1.63;;
21148;SDS011;10732;51.472;6.466;2022-08-24T12:21:31;5.78;;;1.98;;
21148;SDS011;10732;51.472;6.466;2022-08-24T12:24:02;5.00;;;2.10;;
21148;SDS011;10732;51.472;6.466;2022-08-24T12:26:53;6.55;;;2.10;;
21148;SDS011;10732;51.472;6.466;2022-08-24T12:29:36;6.38;;;2.00;;
21148;SDS011;10732;51.472;6.466;2022-08-24T12:32:09;4.97;;;1.80;;
21148;SDS011;10732;51.472;6.466;2022-08-24T12:42:48;3.10;;;1.60;;
21148;SDS011;10732;51.472;6.466;2022-08-24T12:45:22;3.40;;;1.60;;
21148;SDS011;10732;51.472;6.466;2022-08-24T12:59:12;4.90;;;2.00;;
21148;SDS011;10732;51.472;6.466;2022-08-24T13:01:56;6.60;;;1.70;;
21148;SDS011;10732;51.472;6.466;2022-08-24T13:15:18;3.55;;;1.80;;
21148;SDS011;10732;51.472;6.466;2022-08-24T13:17:44;3.83;;;1.80;;
21148;SDS011;10732;51.472;6.466;2022-08-24T13:20:21;4.68;;;1.80;;
21148;SDS011;10732;51.472;6.466;2022-08-24T13:36:35;5.30;;;2.00;;
21148;SDS011;10732;51.472;6.466;2022-08-24T14:01:54;6.82;;;1.70;;
21148;SDS011;10732;51.472;6.466;2022-08-24T14:10:00;5.10;;;1.83;;
21148;SDS011;10732;51.472;6.466;2022-08-24T14:15:06;2.97;;;1.70;;
21148;SDS011;10732;51.472;6.466;2022-08-24T14:23:29;2.97;;;2.00;;
21148;SDS011;10732;51.472;6.466;2022-08-24T14:26:49;6.03;;;2.05;;
21148;SDS011;10732;51.472;6.466;2022-08-24T14:31:39;5.13;;;2.13;;
21148;SDS011;10732;51.472;6.466;2022-08-24T14:40:36;3.20;;;2.00;;
21148;SDS011;10732;51.472;6.466;2022-08-24T14:43:28;5.45;;;2.05;;
21148;SDS011;10732;51.472;6.466;2022-08-24T14:54:29;5.95;;;1.98;;
21148;SDS011;10732;51.472;6.466;2022-08-24T15:10:28;7.45;;;2.38;;
21148;SDS011;10732;51.472;6.466;2022-08-24T15:12:59;3.78;;;1.70;;
21148;SDS011;10732;51.472;6.466;2022-08-24T15:20:36;6.18;;;1.92;;
21148;SDS011;10732;51.472;6.466;2022-08-24T15:26:02;4.15;;;1.50;;
21148;SDS011;10732;51.472;6.466;2022-08-24T15:28:33;2.83;;;1.90;;
21148;SDS011;10732;51.472;6.466;2022-08-24T15:31:01;3.05;;;1.65;;
21148;SDS011;10732;51.472;6.466;2022-08-24T15:33:32;3.55;;;1.67;;
21148;SDS011;10732;51.472;6.466;2022-08-24T15:38:38;4.53;;;1.88;;
21148;SDS011;10732;51.472;6.466;2022-08-24T15:41:12;2.65;;;2.00;;
21148;SDS011;10732;51.472;6.466;2022-08-24T15:46:21;4.00;;;1.65;;
21148;SDS011;10732;51.472;6.466;2022-08-24T15:48:51;3.50;;;1.75;;
21148;SDS011;10732;51.472;6.466;2022-08-24T15:51:45;4.53;;;1.80;;
21148;SDS011;10732;51.472;6.466;2022-08-24T15:54:25;5.60;;;2.28;;
21148;SDS011;10732;51.472;6.466;2022-08-24T15:59:50;5.90;;;2.10;;
21148;SDS011;10732;51.472;6.466;2022-08-24T16:02:27;4.43;;;3.47;;
21148;SDS011;10732;51.472;6.466;2022-08-24T16:10:31;6.38;;;2.30;;
21148;SDS011;10732;51.472;6.466;2022-08-24T16:13:05;4.53;;;1.98;;
21148;SDS011;10732;51.472;6.466;2022-08-24T16:15:57;3.58;;;1.80;;
21148;SDS011;10732;51.472;6.466;2022-08-24T16:19:06;4.60;;;1.98;;
21148;SDS011;10732;51.472;6.466;2022-08-24T16:21:23;8.02;;;2.10;;
21148;SDS011;10732;51.472;6.466;2022-08-24T16:23:53;8.05;;;2.30;;
21148;SDS011;10732;51.472;6.466;2022-08-24T16:26:32;9.30;;;2.05;;
21148;SDS011;10732;51.472;6.466;2022-08-24T16:34:49;5.95;;;1.98;;
21148;SDS011;10732;51.472;6.466;2022-08-24T16:37:18;5.70;;;2.38;;
21148;SDS011;10732;51.472;6.466;2022-08-24T16:39:44;6.50;;;2.00;;
21148;SDS011;10732;51.472;6.466;2022-08-24T16:42:14;7.10;;;2.10;;
21148;SDS011;10732;51.472;6.466;2022-08-24T16:44:51;5.03;;;2.15;;
21148;SDS011;10732;51.472;6.466;2022-08-24T16:47:17;4.35;;;2.10;;
21148;SDS011;10732;51.472;6.466;2022-08-24T16:49:43;5.40;;;2.25;;
21148;SDS011;10732;51.472;6.466;2022-08-24T16:52:08;5.97;;;2.38;;
21148;SDS011;10732;51.472;6.466;2022-08-24T16:54:35;5.30;;;2.45;;
21148;SDS011;10732;51.472;6.466;2022-08-24T16:57:06;5.38;;;2.20;;
21148;SDS011;10732;51.472;6.466;2022-08-24T16:59:36;6.57;;;2.17;;
21148;SDS011;10732;51.472;6.466;2022-08-24T17:02:02;5.22;;;2.10;;
21148;SDS011;10732;51.472;6.466;2022-08-24T17:04:28;5.20;;;2.25;;
21148;SDS011;10732;51.472;6.466;2022-08-24T17:06:54;4.80;;;2.38;;
21148;SDS011;10732;51.472;6.466;2022-08-24T17:09:20;4.18;;;2.30;;
21148;SDS011;10732;51.472;6.466;2022-08-24T17:11:46;5.15;;;1.98;;
21148;SDS011;10732;51.472;6.466;2022-08-24T17:14:12;5.38;;;2.65;;
21148;SDS011;10732;51.472;6.466;2022-08-24T17:16:38;4.43;;;2.33;;
21148;SDS011;10732;51.472;6.466;2022-08-24T17:19:07;8.05;;;2.80;;
21148;SDS011;10732;51.472;6.466;2022-08-24T17:21:35;6.78;;;2.38;;
21148;SDS011;10732;51.472;6.466;2022-08-24T17:24:02;4.97;;;2.20;;
21148;SDS011;10732;51.472;6.466;2022-08-24T17:26:28;9.60;;;2.75;;
21148;SDS011;10732;51.472;6.466;2022-08-24T17:28:54;9.65;;;2.58;;
21148;SDS011;10732;51.472;6.466;2022-08-24T17:31:22;5.32;;;2.50;;
21148;SDS011;10732;51.472;6.466;2022-08-24T17:33:48;6.45;;;2.30;;
21148;SDS011;10732;51.472;6.466;2022-08-24T17:36:15;7.88;;;2.58;;
21148;SDS011;10732;51.472;6.466;2022-08-24T17:38:45;5.00;;;2.20;;
21148;SDS011;10732;51.472;6.466;2022-08-24T17:41:13;7.13;;;2.80;;
21148;SDS011;10732;51.472;6.466;2022-08-24T17:43:38;5.90;;;2.42;;
21148;SDS011;10732;51.472;6.466;2022-08-24T17:46:05;9.43;;;2.38;;
21148;SDS011;10732;51.472;6.466;2022-08-24T17:48:35;12.60;;;2.85;;
21148;SDS011;10732;51.472;6.466;2022-08-24T17:51:01;9.98;;;2.70;;
21148;SDS011;10732;51.472;6.466;2022-08-24T17:53:27;9.90;;;3.15;;
21148;SDS011;10732;51.472;6.466;2022-08-24T17:55:53;8.85;;;2.95;;
21148;SDS011;10732;51.472;6.466;2022-08-24T17:58:18;10.35;;;2.80;;
21148;SDS011;10732;51.472;6.466;2022-08-24T18:00:44;16.60;;;2.97;;
21148;SDS011;10732;51.472;6.466;2022-08-24T18:03:10;8.50;;;3.40;;
21148;SDS011;10732;51.472;6.466;2022-08-24T18:05:36;8.20;;;3.20;;
21148;SDS011;10732;51.472;6.466;2022-08-24T18:08:01;11.90;;;2.90;;
21148;SDS011;10732;51.472;6.466;2022-08-24T18:10:28;5.20;;;2.58;;
21148;SDS011;10732;51.472;6.466;2022-08-24T18:12:56;14.05;;;2.85;;
21148;SDS011;10732;51.472;6.466;2022-08-24T18:15:23;8.30;;;2.40;;
21148;SDS011;10732;51.472;6.466;2022-08-24T18:17:51;6.68;;;2.80;;
21148;SDS011;10732;51.472;6.466;2022-08-24T18:20:19;9.60;;;3.00;;
21148;SDS011;10732;51.472;6.466;2022-08-24T18:22:48;11.68;;;2.42;;
21148;SDS011;10732;51.472;6.466;2022-08-24T18:25:15;13.45;;;2.97;;
21148;SDS011;10732;51.472;6.466;2022-08-24T18:27:42;6.35;;;2.78;;
21148;SDS011;10732;51.472;6.466;2022-08-24T18:30:20;7.72;;;2.42;;
21148;SDS011;10732;51.472;6.466;2022-08-24T18:32:48;10.35;;;2.65;;
21148;SDS011;10732;51.472;6.466;2022-08-24T18:35:14;6.63;;;2.55;;
21148;SDS011;10732;51.472;6.466;2022-08-24T18:37:40;6.13;;;2.30;;
21148;SDS011;10732;51.472;6.466;2022-08-24T18:40:06;4.85;;;2.60;;
21148;SDS011;10732;51.472;6.466;2022-08-24T18:42:32;4.22;;;2.38;;
21148;SDS011;10732;51.472;6.466;2022-08-24T18:44:59;6.38;;;2.47;;
21148;SDS011;10732;51.472;6.466;2022-08-24T18:47:26;6.28;;;2.70;;
21148;SDS011;10732;51.472;6.466;2022-08-24T18:49:51;4.70;;;2.40;;
21148;SDS011;10732;51.472;6.466;2022-08-24T18:52:17;4.53;;;2.30;;
21148;SDS011;10732;51.472;6.466;2022-08-24T18:54:43;6.88;;;2.40;;
21148;SDS011;10732;51.472;6.466;2022-08-24T18:57:11;7.60;;;2.92;;
21148;SDS011;10732;51.472;6.466;2022-08-24T18:59:38;14.45;;;2.80;;
21148;SDS011;10732;51.472;6.466;2022-08-24T19:02:11;6.47;;;2.60;;
21148;SDS011;10732;51.472;6.466;2022-08-24T19:07:31;5.50;;;2.50;;
21148;SDS011;10732;51.472;6.466;2022-08-24T19:09:59;5.07;;;2.42;;